Time;durP1;ratioP1;P1;durP2;ratioP2;P2;SDS_P1;SDS_P2;PMS_P1;PMS_P2;Temp;Humidity;BMP_temperature;BMP_pressure;BME280_temperature;BME280_humidity;BME280_pressure;Samples;Min_cycle;Max_cycle;Signal;HPM_P1;HPM_P2
2023/01/07 00:01:09;;;;;;;10.10;7.50;;;;;;;6.93;92.82;98909.35;422375;1295;107542;-40
2023/01/07 00:11:18;;;;;;;9.20;6.50;;;;;;;6.95;92.84;98913.55;422501;1295;97474;-40
2023/01/07 00:21:27;;;;;;;12.50;7.20;;;;;;;6.98;92.94;98916.27;422722;1288;109911;-40
2023/01/07 00:31:38;;;;;;;10.90;6.20;;;;;;;6.99;92.99;98919.05;422499;1288;107812;-39
2023/01/07 00:52:08;;;;;;;8.70;6.10;;;;;;;6.87;92.61;98929.63;422479;1281;108577;-40
2023/01/07 01:02:15;;;;;;;9.60;6.50;;;;;;;6.67;92.36;98938.79;422532;1286;97915;-41
2023/01/07 01:12:22;;;;;;;12.20;9.20;;;;;;;6.43;92.31;98935.41;422649;1289;109728;-39
2023/01/07 01:22:30;;;;;;;16.30;10.00;;;;;;;6.14;92.26;98944.55;422464;1286;107769;-40
2023/01/07 01:32:37;;;;;;;13.50;10.20;;;;;;;5.90;92.24;98962.31;422422;1295;97944;-42
2023/01/07 01:42:44;;;;;;;14.30;10.70;;;;;;;5.89;92.28;98967.81;422597;1286;107525;-40
2023/01/07 01:52:52;;;;;;;13.30;8.60;;;;;;;5.99;92.58;98964.70;422386;1295;96979;-40
2023/01/07 02:03:01;;;;;;;11.40;9.00;;;;;;;6.10;92.59;98975.18;422551;1295;110782;-40
2023/01/07 02:23:53;;;;;;;13.30;9.20;;;;;;;6.20;92.49;98963.83;422480;1293;97781;-40
2023/01/07 02:34:03;;;;;;;13.00;9.30;;;;;;;6.11;92.45;98961.98;422509;1295;107864;-40
2023/01/07 02:44:21;;;;;;;16.20;10.90;;;;;;;5.94;92.61;98965.02;422964;1266;465337;-39
2023/01/07 02:54:30;;;;;;;14.20;10.20;;;;;;;5.84;92.34;98961.64;422151;1287;110604;-40
2023/01/07 03:04:41;;;;;;;13.50;9.00;;;;;;;5.73;92.27;98966.17;422291;1292;107297;-40
2023/01/07 03:14:49;;;;;;;12.90;9.00;;;;;;;5.73;92.41;98960.52;422071;1295;96610;-40
2023/01/07 03:24:59;;;;;;;13.10;9.80;;;;;;;5.73;92.34;98959.48;422170;1280;108500;-40
2023/01/07 03:35:06;;;;;;;15.50;10.60;;;;;;;5.63;92.25;98958.83;422175;1295;97584;-40
2023/01/07 03:45:14;;;;;;;17.30;12.10;;;;;;;5.38;91.89;98969.98;422222;1294;109869;-41
2023/01/07 03:55:21;;;;;;;26.50;15.90;;;;;;;5.29;92.38;98979.47;422170;1284;108124;-40
2023/01/07 04:05:29;;;;;;;36.40;20.10;;;;;;;5.16;92.35;98976.52;422210;1288;97623;-40
2023/01/07 04:15:36;;;;;;;46.10;23.70;;;;;;;5.06;92.34;98963.02;422471;1295;106689;-40
2023/01/07 04:25:46;;;;;;;34.00;20.00;;;;;;;5.10;92.45;98965.13;422235;1296;96711;-42
2023/01/07 04:35:53;;;;;;;25.90;18.70;;;;;;;5.18;92.54;98960.75;422202;1295;109138;-40
2023/01/07 04:46:00;;;;;;;31.70;20.00;;;;;;;5.27;92.75;98961.38;422114;1295;109164;-41
2023/01/07 04:56:08;;;;;;;26.90;17.60;;;;;;;5.32;92.58;98965.48;422369;1293;97889;-39
2023/01/07 05:16:22;;;;;;;29.10;20.30;;;;;;;5.37;92.90;98985.11;422140;1285;97526;-40
2023/01/07 05:26:30;;;;;;;23.50;15.70;;;;;;;5.52;92.95;98996.75;422316;1290;111624;-40
2023/01/07 05:36:37;;;;;;;36.40;21.20;;;;;;;5.52;92.86;98982.23;422386;1290;108842;-40
2023/01/07 05:46:45;;;;;;;38.30;22.60;;;;;;;5.36;92.71;98975.61;422223;1281;97714;-40
2023/01/07 05:56:52;;;;;;;34.30;21.00;;;;;;;5.15;92.51;98972.91;422280;1289;110752;-41
2023/01/07 06:06:59;;;;;;;28.90;20.50;;;;;;;5.07;92.49;98976.05;422297;1295;97478;-40
2023/01/07 06:17:06;;;;;;;26.60;17.90;;;;;;;5.06;92.66;98974.80;422228;1291;110568;-40
2023/01/07 06:27:14;;;;;;;22.90;17.00;;;;;;;5.06;92.74;98980.36;422243;1287;107727;-40
2023/01/07 06:37:21;;;;;;;27.30;15.70;;;;;;;5.08;92.87;98990.38;422341;1295;97518;-42
2023/01/07 06:47:28;;;;;;;20.00;13.70;;;;;;;5.23;93.01;98992.39;422244;1289;107490;-40
2023/01/07 06:57:35;;;;;;;21.40;14.00;;;;;;;5.20;92.71;98998.90;422164;1295;97981;-41
2023/01/07 07:07:42;;;;;;;21.20;15.80;;;;;;;5.13;92.58;99005.06;422204;1292;110227;-40
2023/01/07 07:17:49;;;;;;;24.20;17.10;;;;;;;5.12;92.63;99015.95;422257;1295;109123;-40
2023/01/07 07:27:56;;;;;;;26.50;18.80;;;;;;;4.99;92.34;99013.88;422330;1289;97520;-39
2023/01/07 07:38:03;;;;;;;33.50;25.20;;;;;;;4.99;92.60;99020.97;422111;1292;107595;-40
2023/01/07 07:48:12;;;;;;;46.70;29.20;;;;;;;4.94;92.67;99023.00;422097;1289;97787;-40
2023/01/07 08:08:26;;;;;;;46.50;29.30;;;;;;;5.47;93.35;99025.80;422119;1288;108427;-40
2023/01/07 08:28:40;;;;;;;49.40;29.40;;;;;;;5.74;92.91;99030.29;422208;1292;106854;-41
2023/01/07 08:38:50;;;;;;;50.60;29.20;;;;;;;5.83;92.93;99031.70;422195;1288;98616;-40
2023/01/07 08:48:55;;;;;;;;;;;;;;;6.01;92.72;99027.64;422344;1288;110810;-40
2023/01/07 08:59:03;;;;;;;45.10;29.40;;;;;;;6.63;93.56;99030.71;422228;1295;108405;-39
2023/01/07 09:09:13;;;;;;;44.50;28.30;;;;;;;7.31;93.25;99018.70;422214;1288;97376;-39
2023/01/07 09:19:20;;;;;;;44.10;29.00;;;;;;;7.70;93.26;99008.06;422332;1295;108819;-40
2023/01/07 09:29:27;;;;;;;52.90;31.90;;;;;;;7.94;92.70;99001.67;422248;1279;97481;-40
2023/01/07 09:39:34;;;;;;;32.90;22.00;;;;;;;7.96;92.08;99004.74;422206;1292;110927;-40
2023/01/07 09:49:45;;;;;;;30.90;19.60;;;;;;;7.77;91.97;99008.27;424374;1295;109372;-39
2023/01/07 09:59:52;;;;;;;28.60;18.90;;;;;;;7.82;92.22;99009.86;422917;1295;97491;-40
2023/01/07 10:10:01;;;;;;;31.40;21.20;;;;;;;7.96;92.11;98998.34;422216;1295;108372;-40
2023/01/07 10:20:14;;;;;;;27.00;17.70;;;;;;;8.23;92.05;98991.96;422286;1288;97867;-41
2023/01/07 10:30:21;;;;;;;20.30;13.80;;;;;;;8.54;91.58;98977.55;422261;1295;111059;-40
2023/01/07 10:40:29;;;;;;;24.70;15.80;;;;;;;8.92;91.33;98964.19;422109;1295;108344;-41
2023/01/07 10:50:48;;;;;;;24.80;16.20;;;;;;;9.27;91.26;98947.91;422320;1281;96680;-40
2023/01/07 11:00:55;;;;;;;23.10;14.90;;;;;;;9.48;90.92;98943.14;422246;1288;108602;-40
2023/01/07 11:11:03;;;;;;;19.40;13.40;;;;;;;9.52;90.52;98934.94;422278;1289;97975;-41
2023/01/07 11:21:10;;;;;;;18.10;11.70;;;;;;;9.56;90.21;98932.89;422382;1289;108156;-40
2023/01/07 11:31:46;;;;;;;17.80;11.70;;;;;;;9.63;89.93;98921.45;421850;1296;108210;-39
2023/01/07 11:41:54;;;;;;;15.70;11.60;;;;;;;9.77;89.86;98910.64;421954;1281;97911;-40
2023/01/07 11:52:01;;;;;;;17.10;11.60;;;;;;;9.76;89.65;98901.88;422281;1295;108109;-40
2023/01/07 12:02:11;;;;;;;20.30;12.80;;;;;;;9.55;89.14;98905.39;422250;1295;97199;-40
2023/01/07 12:12:33;;;;;;;14.80;10.20;;;;;;;9.40;88.93;98894.86;422264;1288;113096;-40
2023/01/07 12:22:41;;;;;;;11.00;7.50;;;;;;;9.43;88.72;98885.51;422249;1289;107182;-40
2023/01/07 12:32:46;;;;;;;16.80;10.80;;;;;;;9.45;88.64;98874.20;422384;1295;97893;-40
2023/01/07 12:42:55;;;;;;;13.50;8.40;;;;;;;9.44;88.44;98865.11;422338;1288;110016;-41
2023/01/07 12:53:03;;;;;;;14.20;8.60;;;;;;;9.40;88.16;98858.30;422343;1288;109380;-40
2023/01/07 13:03:10;;;;;;;13.20;8.20;;;;;;;9.09;87.49;98848.40;422302;1295;97484;-42
2023/01/07 13:13:15;;;;;;;15.80;8.50;;;;;;;8.97;87.26;98838.90;422093;1288;107910;-40
2023/01/07 13:23:24;;;;;;;14.90;8.20;;;;;;;8.86;87.04;98833.66;422252;1291;97893;-40
2023/01/07 13:33:42;;;;;;;22.70;11.80;;;;;;;8.67;87.08;98821.94;422254;1288;111149;-40
2023/01/07 13:44:05;;;;;;;20.30;10.70;;;;;;;8.54;87.07;98815.09;422241;1288;108518;-40
2023/01/07 13:54:12;;;;;;;23.10;13.40;;;;;;;8.44;87.00;98821.55;422710;1289;97950;-39
2023/01/07 14:04:36;;;;;;;33.70;18.10;;;;;;;8.28;86.84;98823.95;422160;1295;108583;-40
2023/01/07 14:14:41;;;;;;;34.90;20.50;;;;;;;8.11;86.77;98830.34;422085;1295;97889;-39
2023/01/07 14:25:00;;;;;;;48.70;28.80;;;;;;;7.92;87.00;98832.67;422210;1289;110589;-40
2023/01/07 14:35:22;;;;;;;45.80;26.80;;;;;;;7.75;87.09;98835.71;422138;1288;108027;-40
2023/01/07 14:56:12;;;;;;;54.70;30.40;;;;;;;7.03;86.74;98834.89;422198;1296;108933;-40
2023/01/07 15:06:28;;;;;;;66.70;35.60;;;;;;;6.69;86.65;98826.77;422213;1293;106485;-40
2023/01/07 15:16:37;;;;;;;69.80;38.40;;;;;;;6.33;86.61;98822.36;422201;1293;97876;-40
2023/01/07 15:26:43;;;;;;;83.60;46.30;;;;;;;5.97;86.74;98825.39;422123;1298;105793;-38
2023/01/07 15:36:52;;;;;;;80.30;46.60;;;;;;;5.52;86.66;98834.66;422034;1287;96723;-40
2023/01/07 15:47:00;;;;;;;94.40;52.80;;;;;;;5.03;86.72;98828.84;422233;1296;109863;-40
2023/01/07 15:57:14;;;;;;;95.00;57.80;;;;;;;4.64;86.65;98827.27;422057;1295;108014;-40
2023/01/07 16:07:21;;;;;;;111.30;62.80;;;;;;;4.38;86.97;98821.48;422071;1289;97927;-40
2023/01/07 16:17:28;;;;;;;142.10;76.50;;;;;;;4.21;87.11;98816.31;422035;1295;110981;-40
2023/01/07 16:27:38;;;;;;;158.20;85.10;;;;;;;4.11;87.31;98810.08;422095;1298;108499;-39
2023/01/07 16:37:46;;;;;;;128.20;73.30;;;;;;;3.98;87.50;98808.11;421980;1289;97852;-40
2023/01/07 16:58:29;;;;;;;106.30;65.40;;;;;;;4.10;88.20;98791.19;422119;1295;100175;-40
2023/01/07 17:08:37;;;;;;;112.10;69.60;;;;;;;4.27;88.66;98790.52;422006;1301;110592;-41
2023/01/07 17:18:46;;;;;;;112.80;70.10;;;;;;;4.45;88.93;98793.57;422167;1288;108869;-40
2023/01/07 17:28:56;;;;;;;107.10;65.10;;;;;;;4.54;88.87;98790.60;422042;1295;97905;-40
2023/01/07 17:39:03;;;;;;;99.10;60.20;;;;;;;4.50;88.76;98787.88;422166;1295;108254;-40
2023/01/07 17:49:11;;;;;;;163.30;85.90;;;;;;;4.33;88.60;98785.39;422200;1286;97935;-40
2023/01/07 17:59:20;;;;;;;150.00;82.20;;;;;;;3.99;88.46;98785.83;422133;1295;108923;-41
2023/01/07 18:09:27;;;;;;;168.70;86.60;;;;;;;3.71;88.61;98788.17;422159;1294;108599;-39
2023/01/07 18:19:35;;;;;;;120.40;73.70;;;;;;;3.54;88.70;98787.35;422170;1295;97970;-40
2023/01/07 18:29:42;;;;;;;123.50;72.40;;;;;;;3.47;88.77;98786.71;422020;1296;107659;-40
2023/01/07 18:39:49;;;;;;;107.80;69.10;;;;;;;3.38;88.80;98782.11;422212;1295;97901;-39
2023/01/07 18:49:57;;;;;;;108.20;60.80;;;;;;;3.31;89.06;98778.91;422171;1294;109347;-39
2023/01/07 19:00:06;;;;;;;94.90;53.50;;;;;;;3.30;89.17;98778.44;422047;1287;107688;-40
2023/01/07 19:10:13;;;;;;;85.00;53.70;;;;;;;3.41;89.59;98769.96;422152;1296;96629;-40
2023/01/07 19:20:21;;;;;;;92.60;53.60;;;;;;;3.53;89.77;98763.87;422053;1292;107627;-40
2023/01/07 19:30:28;;;;;;;92.10;58.40;;;;;;;3.58;89.74;98755.20;422267;1299;97903;-40
2023/01/07 19:40:35;;;;;;;106.30;66.80;;;;;;;3.58;89.74;98758.05;422042;1295;110063;-39
2023/01/07 19:50:45;;;;;;;112.90;68.10;;;;;;;3.40;89.35;98755.79;421959;1289;108679;-39
2023/01/07 20:00:52;;;;;;;117.40;68.70;;;;;;;3.18;89.49;98752.66;422115;1293;98013;-39
2023/01/07 20:11:02;;;;;;;133.10;76.10;;;;;;;2.95;89.48;98748.31;421848;1295;107895;-39
2023/01/07 20:21:09;;;;;;;125.30;76.10;;;;;;;2.82;89.73;98740.84;422144;1295;98037;-39
2023/01/07 20:31:19;;;;;;;139.30;79.50;;;;;;;2.75;89.87;98731.88;422186;1295;108285;-40
2023/01/07 20:41:28;;;;;;;138.00;81.10;;;;;;;2.75;89.97;98722.48;422081;1296;108055;-39
2023/01/07 20:51:35;;;;;;;120.60;71.20;;;;;;;2.76;90.12;98711.77;422086;1295;97905;-39
2023/01/07 21:01:43;;;;;;;108.90;64.00;;;;;;;2.77;90.20;98707.92;422127;1289;107783;-39
2023/01/07 21:11:50;;;;;;;124.60;69.80;;;;;;;2.85;90.29;98697.20;422130;1296;96602;-39
2023/01/07 21:21:59;;;;;;;103.20;62.80;;;;;;;2.78;90.15;98698.95;422077;1295;110538;-40
2023/01/07 21:32:03;;;;;;;102.20;54.90;;;;;;;2.79;90.39;98702.89;422189;1295;107346;-39
2023/01/07 21:42:11;;;;;;;95.00;56.30;;;;;;;2.74;90.46;98693.35;422110;1290;97902;-41
2023/01/07 21:52:19;;;;;;;99.30;57.80;;;;;;;2.64;90.61;98688.13;422155;1295;108997;-40
2023/01/07 22:02:26;;;;;;;94.30;58.50;;;;;;;2.59;90.68;98673.34;422255;1296;97550;-38
2023/01/07 22:12:34;;;;;;;95.20;52.00;;;;;;;2.57;90.61;98664.84;422181;1296;109895;-38
2023/01/07 22:22:42;;;;;;;87.00;48.00;;;;;;;2.61;90.74;98655.13;422041;1295;107830;-39
2023/01/07 22:32:50;;;;;;;66.60;42.20;;;;;;;2.65;90.84;98640.44;422159;1288;97832;-39
2023/01/07 22:43:02;;;;;;;70.40;41.70;;;;;;;2.63;90.81;98627.29;422192;1288;108384;-39
2023/01/07 22:53:09;;;;;;;73.40;40.50;;;;;;;2.67;91.09;98606.73;422103;1296;97339;-40
2023/01/07 23:03:17;;;;;;;63.20;37.90;;;;;;;2.75;91.25;98591.17;422073;1295;110669;-40
2023/01/07 23:13:24;;;;;;;70.00;39.70;;;;;;;2.87;91.52;98585.82;422141;1295;108072;-39
2023/01/07 23:23:31;;;;;;;58.30;32.70;;;;;;;3.07;91.66;98577.39;422177;1295;98021;-38
2023/01/07 23:33:38;;;;;;;65.40;35.90;;;;;;;3.18;91.57;98571.10;422225;1287;108534;-39
2023/01/07 23:43:46;;;;;;;75.60;45.00;;;;;;;3.09;91.27;98558.52;422085;1293;97979;-39
2023/01/07 23:53:53;;;;;;;76.70;46.30;;;;;;;2.92;91.24;98546.39;422175;1294;110391;-38
